Terminal Aerodrome Forecast
Issued by NWS

Home | Current Version | Previous Version | Text Only | Print | Product List | Glossary On
Versions: 1 2 3 4 5 6 7 8 9 10 11 12
253
FTUS44 KEPZ 231144
TAFTCS
TAF
KTCS 231144Z 2312/2412 23011KT P6SM SKC
     FM231500 23013G21KT P6SM SKC
     FM231800 24026G34KT P6SM SKC
     FM240200 25018G25KT P6SM SKC
     FM240600 27011KT P6SM SCT250=

USA.gov is the U.S. government's official web portal to all federal, state and local government web resources and services.